Time,TemperatureF,DewpointF,PressureIn,WindDirection,WindDirectionDegrees,WindSpeedMPH,WindSpeedGustMPH,Humidity,HourlyPrecipIn,Conditions,Clouds,dailyrainin,SoftwareType,DateUTC
2013-06-15 04:22:00,60.0,59.0,-100.00,North,355,0.0,0.0,96,-99.99,,,-99.99,,2013-06-15 09:22:00,
2013-06-15 04:33:00,60.0,59.0,-100.00,North,355,0.0,0.0,96,-99.99,,,-99.99,,2013-06-15 09:33:00,
2013-06-15 04:43:00,60.0,59.0,-100.00,North,355,0.0,0.0,96,-99.99,,,-99.99,,2013-06-15 09:43:00,
2013-06-15 04:52:00,60.0,59.0,-100.00,North,355,0.0,0.0,96,-99.99,,,-99.99,,2013-06-15 09:52:00,
2013-06-15 05:23:00,58.0,58.0,-100.00,North,355,0.0,0.0,99,-99.99,,,-99.99,,2013-06-15 10:23:00,
2013-06-15 05:33:00,58.0,58.0,-100.00,North,355,0.0,0.0,99,-99.99,,,-99.99,,2013-06-15 10:33:00,
2013-06-15 05:44:00,58.0,58.0,-100.00,North,355,0.0,0.0,99,-99.99,,,-99.99,,2013-06-15 10:44:00,
2013-06-15 05:53:00,58.0,58.0,-100.00,North,355,0.0,0.0,99,-99.99,,,-99.99,,2013-06-15 10:53:00,
2013-06-15 06:22:00,58.0,58.0,-100.00,North,355,0.0,0.0,99,-99.99,,,-99.99,,2013-06-15 11:22:00,
2013-06-15 06:33:00,58.0,58.0,-100.00,North,355,0.0,0.0,99,-99.99,,,-99.99,,2013-06-15 11:33:00,
2013-06-15 06:43:00,58.0,58.0,-100.00,North,355,0.0,0.0,99,-99.99,,,-99.99,,2013-06-15 11:43:00,
2013-06-15 06:53:00,58.0,58.0,-100.00,North,355,0.0,0.0,99,-99.99,,,-99.99,,2013-06-15 11:53:00,
2013-06-15 09:22:00,62.0,61.0,-100.00,North,355,0.0,0.0,99,-99.99,,,-99.99,,2013-06-15 14:22:00,
2013-06-15 09:34:00,62.0,61.0,-100.00,North,355,0.0,0.0,99,-99.99,,,-99.99,,2013-06-15 14:34:00,
2013-06-15 09:43:00,62.0,61.0,-100.00,North,355,0.0,0.0,99,-99.99,,,-99.99,,2013-06-15 14:43:00,
2013-06-15 09:53:00,62.0,61.0,-100.00,North,355,0.0,0.0,99,-99.99,,,-99.99,,2013-06-15 14:53:00,
2013-06-15 10:22:00,63.0,63.0,-100.00,North,355,0.0,0.0,99,-99.99,,,-99.99,,2013-06-15 15:22:00,
2013-06-15 10:33:00,63.0,63.0,-100.00,North,355,0.0,0.0,99,-99.99,,,-99.99,,2013-06-15 15:33:00,
2013-06-15 10:43:00,63.0,63.0,-100.00,North,355,0.0,0.0,99,-99.99,,,-99.99,,2013-06-15 15:43:00,
2013-06-15 10:53:00,63.0,63.0,-100.00,North,355,0.0,0.0,99,-99.99,,,-99.99,,2013-06-15 15:53:00,
2013-06-15 12:22:00,71.0,71.0,-100.00,North,355,0.0,0.0,99,-99.99,,,-99.99,,2013-06-15 17:22:00,
2013-06-15 12:32:00,71.0,71.0,-100.00,North,355,0.0,0.0,99,-99.99,,,-99.99,,2013-06-15 17:32:00,
2013-06-15 12:43:00,71.0,71.0,-100.00,North,355,0.0,0.0,99,-99.99,,,-99.99,,2013-06-15 17:43:00,
2013-06-15 12:52:00,71.0,71.0,-100.00,North,355,0.0,0.0,99,-99.99,,,-99.99,,2013-06-15 17:52:00,
2013-06-15 13:22:00,77.0,77.0,-100.00,North,355,0.0,0.0,99,-99.99,,,-99.99,,2013-06-15 18:22:00,
2013-06-15 14:22:00,77.0,76.0,-100.00,North,355,0.0,0.0,99,-99.99,,,-99.99,,2013-06-15 19:22:00,
2013-06-15 15:22:00,80.0,80.0,-100.00,North,355,0.0,0.0,99,-99.99,,,-99.99,,2013-06-15 20:22:00,
2013-06-15 16:22:00,82.0,80.0,-100.00,North,355,0.0,0.0,94,-99.99,,,-99.99,,2013-06-15 21:22:00,
2013-06-15 17:22:00,82.0,77.0,-100.00,North,355,0.0,0.0,83,-99.99,,,-99.99,,2013-06-15 22:22:00,
2013-06-15 18:22:00,78.0,76.0,-100.00,North,355,0.0,0.0,91,-99.99,,,-99.99,,2013-06-15 23:22:00,
2013-06-15 18:33:00,78.0,76.0,-100.00,North,355,0.0,0.0,91,-99.99,,,-99.99,,2013-06-15 23:33:00,
2013-06-15 18:42:00,78.0,76.0,-100.00,North,355,0.0,0.0,91,-99.99,,,-99.99,,2013-06-15 23:42:00,
2013-06-15 19:22:00,81.0,77.0,-100.00,North,355,0.0,0.0,88,-99.99,,,-99.99,,2013-06-16 00:22:00,
2013-06-15 20:22:00,77.0,74.0,-100.00,North,355,0.0,0.0,93,-99.99,,,-99.99,,2013-06-16 01:22:00,
2013-06-15 20:33:00,77.0,74.0,-100.00,North,355,0.0,0.0,93,-99.99,,,-99.99,,2013-06-16 01:33:00,
2013-06-15 20:42:00,77.0,74.0,-100.00,North,355,0.0,0.0,93,-99.99,,,-99.99,,2013-06-16 01:42:00,
2013-06-15 20:53:00,77.0,74.0,-100.00,North,355,0.0,0.0,93,-99.99,,,-99.99,,2013-06-16 01:53:00,
2013-06-15 21:22:00,74.0,74.0,-100.00,North,355,0.0,0.0,99,-99.99,,,-99.99,,2013-06-16 02:22:00,
2013-06-15 21:33:00,74.0,74.0,-100.00,North,355,0.0,0.0,99,-99.99,,,-99.99,,2013-06-16 02:33:00,
2013-06-15 21:43:00,74.0,74.0,-100.00,North,355,0.0,0.0,99,-99.99,,,-99.99,,2013-06-16 02:43:00,
2013-06-15 21:53:00,74.0,74.0,-100.00,North,355,0.0,0.0,99,-99.99,,,-99.99,,2013-06-16 02:53:00,
2013-06-15 22:22:00,74.0,74.0,-100.00,North,355,0.0,0.0,99,-99.99,,,-99.99,,2013-06-16 03:22:00,
2013-06-15 22:33:00,74.0,74.0,-100.00,North,355,0.0,0.0,99,-99.99,,,-99.99,,2013-06-16 03:33:00,
2013-06-15 22:43:00,74.0,74.0,-100.00,North,355,0.0,0.0,99,-99.99,,,-99.99,,2013-06-16 03:43:00,
2013-06-15 22:53:00,74.0,74.0,-100.00,North,355,0.0,0.0,99,-99.99,,,-99.99,,2013-06-16 03:53:00,
2013-06-15 23:23:00,73.0,73.0,-100.00,North,355,0.0,0.0,99,-99.99,,,-99.99,,2013-06-16 04:23:00,
2013-06-15 23:33:00,73.0,73.0,-100.00,North,355,0.0,0.0,99,-99.99,,,-99.99,,2013-06-16 04:33:00,
2013-06-15 23:42:00,73.0,73.0,-100.00,North,355,0.0,0.0,99,-99.99,,,-99.99,,2013-06-16 04:42:00,
2013-06-15 23:53:00,73.0,73.0,-100.00,North,355,0.0,0.0,99,-99.99,,,-99.99,,2013-06-16 04:53:00,